sensor_id;sensor_type;location;lat;lon;timestamp;pressure;altitude;pressure_sealevel;temperature;humidity
28008;BME280;15333;50.010;20.020;2023-05-31T00:02:24;99359.63;;;12.05;66.87
28008;BME280;15333;50.010;20.020;2023-05-31T00:05:25;99356.69;;;11.84;66.76
28008;BME280;15333;50.010;20.020;2023-05-31T00:08:26;99358.41;;;11.85;67.12
28008;BME280;15333;50.010;20.020;2023-05-31T00:11:27;99361.41;;;11.55;70.01
28008;BME280;15333;50.010;20.020;2023-05-31T00:14:28;99360.13;;;11.35;72.60
28008;BME280;15333;50.010;20.020;2023-05-31T00:17:29;99356.44;;;10.98;79.61
28008;BME280;15333;50.010;20.020;2023-05-31T00:20:30;99358.06;;;10.62;82.44
28008;BME280;15333;50.010;20.020;2023-05-31T00:23:31;99352.81;;;10.33;85.61
28008;BME280;15333;50.010;20.020;2023-05-31T00:26:32;99349.78;;;10.25;84.90
28008;BME280;15333;50.010;20.020;2023-05-31T00:29:33;99342.47;;;10.41;81.42
28008;BME280;15333;50.010;20.020;2023-05-31T00:32:34;99345.13;;;10.41;81.41
28008;BME280;15333;50.010;20.020;2023-05-31T00:35:35;99342.06;;;10.47;80.20
28008;BME280;15333;50.010;20.020;2023-05-31T00:38:37;99348.13;;;10.37;81.66
28008;BME280;15333;50.010;20.020;2023-05-31T00:41:38;99348.13;;;10.37;80.20
28008;BME280;15333;50.010;20.020;2023-05-31T00:44:39;99349.41;;;10.17;81.43
28008;BME280;15333;50.010;20.020;2023-05-31T00:47:41;99352.66;;;10.08;81.17
28008;BME280;15333;50.010;20.020;2023-05-31T00:50:42;99357.06;;;9.95;83.54
28008;BME280;15333;50.010;20.020;2023-05-31T00:53:43;99357.66;;;9.86;82.84
28008;BME280;15333;50.010;20.020;2023-05-31T00:56:45;99352.91;;;9.76;82.23
28008;BME280;15333;50.010;20.020;2023-05-31T00:59:46;99351.56;;;9.69;82.66
28008;BME280;15333;50.010;20.020;2023-05-31T01:02:46;99368.75;;;9.51;83.97
28008;BME280;15333;50.010;20.020;2023-05-31T01:05:51;99370.66;;;9.49;86.74
28008;BME280;15333;50.010;20.020;2023-05-31T01:08:53;99373.50;;;9.60;86.16
28008;BME280;15333;50.010;20.020;2023-05-31T01:15:24;99365.94;;;9.95;81.02
28008;BME280;15333;50.010;20.020;2023-05-31T01:18:31;99373.72;;;9.86;81.54
28008;BME280;15333;50.010;20.020;2023-05-31T01:21:56;99377.13;;;9.88;82.00
28008;BME280;15333;50.010;20.020;2023-05-31T01:28:06;99388.59;;;9.47;87.31
28008;BME280;15333;50.010;20.020;2023-05-31T01:31:12;99389.91;;;9.26;90.13
28008;BME280;15333;50.010;20.020;2023-05-31T01:34:17;99382.66;;;9.28;89.93
28008;BME280;15333;50.010;20.020;2023-05-31T01:37:18;99389.28;;;9.07;94.38
28008;BME280;15333;50.010;20.020;2023-05-31T01:40:19;99384.47;;;8.83;97.44
28008;BME280;15333;50.010;20.020;2023-05-31T01:43:20;99389.16;;;8.64;98.74
28008;BME280;15333;50.010;20.020;2023-05-31T01:46:21;99391.69;;;8.51;99.99
28008;BME280;15333;50.010;20.020;2023-05-31T01:49:23;99387.16;;;8.38;100.00
28008;BME280;15333;50.010;20.020;2023-05-31T01:52:24;99384.28;;;8.41;100.00
28008;BME280;15333;50.010;20.020;2023-05-31T01:55:28;99391.50;;;8.39;100.00
28008;BME280;15333;50.010;20.020;2023-05-31T01:58:30;99393.06;;;8.43;100.00
28008;BME280;15333;50.010;20.020;2023-05-31T02:01:32;99392.81;;;8.32;100.00
28008;BME280;15333;50.010;20.020;2023-05-31T02:04:35;99391.34;;;8.42;100.00
28008;BME280;15333;50.010;20.020;2023-05-31T02:07:38;99379.94;;;8.70;97.47
28008;BME280;15333;50.010;20.020;2023-05-31T02:10:39;99379.06;;;8.69;96.77
28008;BME280;15333;50.010;20.020;2023-05-31T02:13:40;99381.88;;;8.52;97.22
28008;BME280;15333;50.010;20.020;2023-05-31T02:16:41;99388.75;;;8.56;99.10
28008;BME280;15333;50.010;20.020;2023-05-31T02:19:42;99388.16;;;8.51;98.29
28008;BME280;15333;50.010;20.020;2023-05-31T02:22:44;99383.19;;;8.45;99.00
28008;BME280;15333;50.010;20.020;2023-05-31T02:25:47;99383.19;;;8.45;99.87
28008;BME280;15333;50.010;20.020;2023-05-31T02:28:47;99384.47;;;8.38;100.00
28008;BME280;15333;50.010;20.020;2023-05-31T02:31:48;99381.03;;;8.36;100.00
28008;BME280;15333;50.010;20.020;2023-05-31T02:34:49;99370.19;;;8.23;100.00
28008;BME280;15333;50.010;20.020;2023-05-31T02:37:50;99382.56;;;8.24;100.00
28008;BME280;15333;50.010;20.020;2023-05-31T02:40:51;99383.59;;;8.21;100.00
28008;BME280;15333;50.010;20.020;2023-05-31T02:43:52;99387.91;;;8.40;100.00
28008;BME280;15333;50.010;20.020;2023-05-31T02:46:53;99379.97;;;8.54;98.83
28008;BME280;15333;50.010;20.020;2023-05-31T02:49:54;99383.81;;;8.64;95.81
28008;BME280;15333;50.010;20.020;2023-05-31T02:52:58;99384.00;;;8.61;98.21
28008;BME280;15333;50.010;20.020;2023-05-31T02:56:30;99381.31;;;8.61;100.00
28008;BME280;15333;50.010;20.020;2023-05-31T02:59:55;99390.50;;;8.87;100.00
28008;BME280;15333;50.010;20.020;2023-05-31T03:02:59;99392.41;;;9.43;100.00
28008;BME280;15333;50.010;20.020;2023-05-31T03:06:12;99393.06;;;10.03;98.74
28008;BME280;15333;50.010;20.020;2023-05-31T03:09:17;99388.63;;;10.72;93.37
28008;BME280;15333;50.010;20.020;2023-05-31T03:12:18;99393.13;;;11.36;88.49
28008;BME280;15333;50.010;20.020;2023-05-31T03:15:22;99396.78;;;11.48;85.02
28008;BME280;15333;50.010;20.020;2023-05-31T03:18:22;99392.59;;;11.56;84.76
28008;BME280;15333;50.010;20.020;2023-05-31T03:21:27;99395.69;;;12.01;82.49
28008;BME280;15333;50.010;20.020;2023-05-31T03:24:28;99401.38;;;12.93;77.15
28008;BME280;15333;50.010;20.020;2023-05-31T03:27:32;99413.75;;;13.19;74.99
28008;BME280;15333;50.010;20.020;2023-05-31T03:30:33;99407.88;;;14.05;69.22
28008;BME280;15333;50.010;20.020;2023-05-31T03:33:36;99413.63;;;14.88;66.90
28008;BME280;15333;50.010;20.020;2023-05-31T03:36:37;99423.97;;;14.72;67.25
28008;BME280;15333;50.010;20.020;2023-05-31T03:39:49;99417.91;;;16.05;61.57
28008;BME280;15333;50.010;20.020;2023-05-31T03:43:01;99430.31;;;15.87;61.94
28008;BME280;15333;50.010;20.020;2023-05-31T03:46:02;99431.47;;;16.55;59.71
28008;BME280;15333;50.010;20.020;2023-05-31T03:49:03;99426.72;;;17.07;57.63
28008;BME280;15333;50.010;20.020;2023-05-31T03:52:06;99430.97;;;17.77;55.96
28008;BME280;15333;50.010;20.020;2023-05-31T03:55:09;99436.38;;;16.80;56.51
28008;BME280;15333;50.010;20.020;2023-05-31T03:58:12;99444.03;;;18.10;54.30
28008;BME280;15333;50.010;20.020;2023-05-31T04:01:15;99448.78;;;18.35;52.06
28008;BME280;15333;50.010;20.020;2023-05-31T04:04:18;99437.16;;;17.40;55.02
28008;BME280;15333;50.010;20.020;2023-05-31T04:07:19;99441.81;;;17.29;56.20
28008;BME280;15333;50.010;20.020;2023-05-31T04:10:20;99433.88;;;18.12;54.71
28008;BME280;15333;50.010;20.020;2023-05-31T04:13:21;99425.16;;;17.14;56.59
28008;BME280;15333;50.010;20.020;2023-05-31T04:16:22;99432.69;;;16.81;58.76
28008;BME280;15333;50.010;20.020;2023-05-31T04:19:23;99420.16;;;18.60;54.73
28008;BME280;15333;50.010;20.020;2023-05-31T04:22:26;99421.25;;;18.03;55.05
28008;BME280;15333;50.010;20.020;2023-05-31T04:25:27;99406.75;;;20.09;47.21
28008;BME280;15333;50.010;20.020;2023-05-31T04:28:29;99422.50;;;21.39;43.44
28008;BME280;15333;50.010;20.020;2023-05-31T04:31:32;99426.16;;;20.98;44.27
28008;BME280;15333;50.010;20.020;2023-05-31T04:34:38;99432.66;;;21.13;44.10
28008;BME280;15333;50.010;20.020;2023-05-31T04:37:40;99432.31;;;21.08;44.20
28008;BME280;15333;50.010;20.020;2023-05-31T04:40:42;99429.31;;;21.27;43.21
28008;BME280;15333;50.010;20.020;2023-05-31T04:43:43;99422.75;;;20.20;43.33
28008;BME280;15333;50.010;20.020;2023-05-31T04:46:45;99421.56;;;19.88;44.58
28008;BME280;15333;50.010;20.020;2023-05-31T04:49:46;99430.88;;;20.80;42.20
28008;BME280;15333;50.010;20.020;2023-05-31T04:52:48;99425.00;;;21.08;41.54
28008;BME280;15333;50.010;20.020;2023-05-31T04:55:49;99429.66;;;21.40;41.46
28008;BME280;15333;50.010;20.020;2023-05-31T04:58:50;99429.25;;;19.75;44.46
28008;BME280;15333;50.010;20.020;2023-05-31T05:01:51;99439.84;;;21.22;41.55
28008;BME280;15333;50.010;20.020;2023-05-31T05:04:52;99436.81;;;21.58;39.78
28008;BME280;15333;50.010;20.020;2023-05-31T05:07:53;99443.25;;;21.32;40.95
28008;BME280;15333;50.010;20.020;2023-05-31T05:10:57;99438.84;;;22.04;38.12
28008;BME280;15333;50.010;20.020;2023-05-31T05:13:58;99440.88;;;21.29;38.92
28008;BME280;15333;50.010;20.020;2023-05-31T05:17:01;99435.97;;;22.53;36.95
28008;BME280;15333;50.010;20.020;2023-05-31T05:20:02;99438.16;;;21.29;39.32
28008;BME280;15333;50.010;20.020;2023-05-31T05:23:06;99441.41;;;22.61;38.33
28008;BME280;15333;50.010;20.020;2023-05-31T05:26:08;99436.13;;;21.47;39.59
28008;BME280;15333;50.010;20.020;2023-05-31T05:29:09;99442.28;;;21.74;39.76
28008;BME280;15333;50.010;20.020;2023-05-31T05:32:10;99439.81;;;22.27;38.07
28008;BME280;15333;50.010;20.020;2023-05-31T05:35:11;99430.22;;;22.48;38.19
28008;BME280;15333;50.010;20.020;2023-05-31T05:38:12;99432.69;;;23.04;36.13
28008;BME280;15333;50.010;20.020;2023-05-31T05:41:13;99437.50;;;21.68;38.83
28008;BME280;15333;50.010;20.020;2023-05-31T05:44:16;99435.50;;;22.88;37.31
28008;BME280;15333;50.010;20.020;2023-05-31T05:47:17;99436.25;;;23.36;36.29
28008;BME280;15333;50.010;20.020;2023-05-31T05:50:18;99438.00;;;21.87;38.39
28008;BME280;15333;50.010;20.020;2023-05-31T05:53:20;99442.56;;;22.27;37.81
28008;BME280;15333;50.010;20.020;2023-05-31T05:56:21;99439.84;;;22.11;39.12
28008;BME280;15333;50.010;20.020;2023-05-31T05:59:29;99439.78;;;22.44;37.79
28008;BME280;15333;50.010;20.020;2023-05-31T06:02:34;99443.50;;;22.59;38.33
28008;BME280;15333;50.010;20.020;2023-05-31T06:05:35;99441.25;;;21.42;40.36
28008;BME280;15333;50.010;20.020;2023-05-31T06:08:36;99444.38;;;20.04;42.39
28008;BME280;15333;50.010;20.020;2023-05-31T06:11:37;99444.06;;;18.92;44.41
28008;BME280;15333;50.010;20.020;2023-05-31T06:14:38;99446.13;;;18.53;45.88
28008;BME280;15333;50.010;20.020;2023-05-31T06:17:40;99445.25;;;17.79;47.82
28008;BME280;15333;50.010;20.020;2023-05-31T06:20:42;99446.94;;;17.80;47.70
28008;BME280;15333;50.010;20.020;2023-05-31T06:23:43;99450.81;;;18.24;47.62
28008;BME280;15333;50.010;20.020;2023-05-31T06:26:45;99440.53;;;18.27;47.19
28008;BME280;15333;50.010;20.020;2023-05-31T06:29:47;99444.69;;;17.46;49.34
28008;BME280;15333;50.010;20.020;2023-05-31T06:32:54;99448.59;;;18.00;48.56
28008;BME280;15333;50.010;20.020;2023-05-31T06:35:59;99439.22;;;17.94;50.13
28008;BME280;15333;50.010;20.020;2023-05-31T06:39:00;99444.81;;;18.30;48.75
28008;BME280;15333;50.010;20.020;2023-05-31T06:42:03;99439.91;;;18.43;48.12
28008;BME280;15333;50.010;20.020;2023-05-31T06:45:29;99437.53;;;17.84;49.20
28008;BME280;15333;50.010;20.020;2023-05-31T06:48:40;99447.13;;;18.15;49.00
28008;BME280;15333;50.010;20.020;2023-05-31T06:52:16;99445.28;;;18.16;47.81
28008;BME280;15333;50.010;20.020;2023-05-31T06:55:43;99443.91;;;18.02;49.17
28008;BME280;15333;50.010;20.020;2023-05-31T06:58:46;99442.47;;;18.45;49.22
28008;BME280;15333;50.010;20.020;2023-05-31T07:01:47;99436.78;;;18.75;48.32
28008;BME280;15333;50.010;20.020;2023-05-31T07:04:48;99439.03;;;18.97;47.21
28008;BME280;15333;50.010;20.020;2023-05-31T07:07:50;99440.13;;;18.87;47.24
28008;BME280;15333;50.010;20.020;2023-05-31T07:10:53;99446.13;;;18.53;48.43
28008;BME280;15333;50.010;20.020;2023-05-31T07:13:54;99435.94;;;18.92;48.59
28008;BME280;15333;50.010;20.020;2023-05-31T07:16:55;99446.34;;;18.97;47.64
28008;BME280;15333;50.010;20.020;2023-05-31T07:19:57;99439.13;;;18.88;47.12
28008;BME280;15333;50.010;20.020;2023-05-31T07:22:57;99439.97;;;18.88;47.55
28008;BME280;15333;50.010;20.020;2023-05-31T07:25:59;99450.91;;;18.69;47.92
28008;BME280;15333;50.010;20.020;2023-05-31T07:29:01;99437.16;;;18.80;47.43
28008;BME280;15333;50.010;20.020;2023-05-31T07:32:02;99440.88;;;18.79;47.36
28008;BME280;15333;50.010;20.020;2023-05-31T07:35:03;99432.16;;;19.21;46.09
28008;BME280;15333;50.010;20.020;2023-05-31T07:38:04;99429.69;;;18.27;49.01
28008;BME280;15333;50.010;20.020;2023-05-31T07:41:05;99434.25;;;17.90;50.01
28008;BME280;15333;50.010;20.020;2023-05-31T07:44:06;99427.28;;;18.24;49.92
28008;BME280;15333;50.010;20.020;2023-05-31T07:47:08;99427.13;;;18.63;49.31
28008;BME280;15333;50.010;20.020;2023-05-31T07:50:09;99423.38;;;18.91;48.47
28008;BME280;15333;50.010;20.020;2023-05-31T07:53:10;99423.38;;;18.91;48.48
28008;BME280;15333;50.010;20.020;2023-05-31T07:56:11;99429.03;;;18.80;48.90
28008;BME280;15333;50.010;20.020;2023-05-31T07:59:12;99424.88;;;19.21;46.33
28008;BME280;15333;50.010;20.020;2023-05-31T08:02:13;99429.44;;;19.21;46.93
28008;BME280;15333;50.010;20.020;2023-05-31T08:05:14;99422.47;;;19.36;46.32
28008;BME280;15333;50.010;20.020;2023-05-31T08:08:15;99427.38;;;19.32;46.34
28008;BME280;15333;50.010;20.020;2023-05-31T08:11:16;99417.03;;;19.36;45.63
28008;BME280;15333;50.010;20.020;2023-05-31T08:14:17;99417.72;;;19.20;45.70
28008;BME280;15333;50.010;20.020;2023-05-31T08:17:18;99417.66;;;19.30;46.04
28008;BME280;15333;50.010;20.020;2023-05-31T08:20:20;99417.81;;;19.46;46.52
28008;BME280;15333;50.010;20.020;2023-05-31T08:23:21;99413.50;;;19.53;45.93
28008;BME280;15333;50.010;20.020;2023-05-31T08:26:22;99411.66;;;19.26;46.56
28008;BME280;15333;50.010;20.020;2023-05-31T08:29:23;99415.16;;;19.18;47.50
28008;BME280;15333;50.010;20.020;2023-05-31T08:32:24;99412.78;;;19.51;43.56
28008;BME280;15333;50.010;20.020;2023-05-31T08:35:25;99410.56;;;19.72;42.65
28008;BME280;15333;50.010;20.020;2023-05-31T08:38:27;99410.63;;;19.80;44.39
28008;BME280;15333;50.010;20.020;2023-05-31T08:41:28;99413.94;;;19.66;42.24
28008;BME280;15333;50.010;20.020;2023-05-31T08:44:32;99415.63;;;19.67;43.17
28008;BME280;15333;50.010;20.020;2023-05-31T08:47:39;99407.25;;;19.43;41.39
28008;BME280;15333;50.010;20.020;2023-05-31T08:50:44;99403.06;;;19.66;40.98
28008;BME280;15333;50.010;20.020;2023-05-31T08:53:47;99413.06;;;19.91;41.72
28008;BME280;15333;50.010;20.020;2023-05-31T08:56:49;99404.03;;;20.09;38.93
28008;BME280;15333;50.010;20.020;2023-05-31T08:59:51;99418.06;;;20.04;39.41
28008;BME280;15333;50.010;20.020;2023-05-31T09:02:53;99415.06;;;19.81;39.49
28008;BME280;15333;50.010;20.020;2023-05-31T09:05:54;99417.78;;;19.81;38.71
28008;BME280;15333;50.010;20.020;2023-05-31T09:08:57;99409.34;;;19.92;40.07
28008;BME280;15333;50.010;20.020;2023-05-31T09:11:57;99409.03;;;19.96;39.16
28008;BME280;15333;50.010;20.020;2023-05-31T09:14:59;99414.25;;;19.89;41.17
28008;BME280;15333;50.010;20.020;2023-05-31T09:18:15;99418.03;;;19.70;40.18
28008;BME280;15333;50.010;20.020;2023-05-31T09:21:16;99419.66;;;19.63;39.86
28008;BME280;15333;50.010;20.020;2023-05-31T09:24:17;99404.44;;;20.22;39.83
28008;BME280;15333;50.010;20.020;2023-05-31T09:27:20;99416.78;;;19.90;38.87
28008;BME280;15333;50.010;20.020;2023-05-31T09:30:21;99409.66;;;19.89;38.81
28008;BME280;15333;50.010;20.020;2023-05-31T09:33:22;99399.66;;;20.16;40.12
28008;BME280;15333;50.010;20.020;2023-05-31T09:36:25;99402.13;;;20.35;40.54
28008;BME280;15333;50.010;20.020;2023-05-31T09:39:26;99400.56;;;20.32;39.74
28008;BME280;15333;50.010;20.020;2023-05-31T09:42:27;99396.97;;;20.32;39.49
28008;BME280;15333;50.010;20.020;2023-05-31T09:45:30;99400.66;;;20.15;39.19
28008;BME280;15333;50.010;20.020;2023-05-31T09:48:31;99395.06;;;20.16;39.00
28008;BME280;15333;50.010;20.020;2023-05-31T09:51:32;99399.25;;;20.11;38.72
28008;BME280;15333;50.010;20.020;2023-05-31T09:54:36;99396.19;;;19.80;39.19
28008;BME280;15333;50.010;20.020;2023-05-31T09:57:39;99396.59;;;20.19;39.40
28008;BME280;15333;50.010;20.020;2023-05-31T10:00:44;99393.09;;;20.01;39.88
28008;BME280;15333;50.010;20.020;2023-05-31T10:03:49;99392.53;;;20.23;40.38
28008;BME280;15333;50.010;20.020;2023-05-31T10:06:50;99386.72;;;20.10;38.73
28008;BME280;15333;50.010;20.020;2023-05-31T10:09:51;99390.88;;;20.30;38.73
28008;BME280;15333;50.010;20.020;2023-05-31T10:12:57;99377.91;;;20.16;39.69
28008;BME280;15333;50.010;20.020;2023-05-31T10:16:06;99374.63;;;20.38;39.61
28008;BME280;15333;50.010;20.020;2023-05-31T10:19:09;99376.31;;;20.39;39.81
28008;BME280;15333;50.010;20.020;2023-05-31T10:22:12;99373.59;;;20.39;38.86
28008;BME280;15333;50.010;20.020;2023-05-31T10:25:30;99368.88;;;20.49;39.15
28008;BME280;15333;50.010;20.020;2023-05-31T10:28:36;99351.59;;;20.58;38.84
28008;BME280;15333;50.010;20.020;2023-05-31T10:31:49;99355.84;;;20.69;37.59
28008;BME280;15333;50.010;20.020;2023-05-31T10:34:51;99354.94;;;20.44;39.21
28008;BME280;15333;50.010;20.020;2023-05-31T10:37:54;99349.22;;;20.63;39.35
28008;BME280;15333;50.010;20.020;2023-05-31T10:41:05;99357.25;;;20.81;40.25
28008;BME280;15333;50.010;20.020;2023-05-31T10:44:12;99354.78;;;20.54;38.89
28008;BME280;15333;50.010;20.020;2023-05-31T10:47:15;99349.09;;;20.31;39.67
28008;BME280;15333;50.010;20.020;2023-05-31T10:50:20;99350.19;;;20.54;40.57
28008;BME280;15333;50.010;20.020;2023-05-31T10:53:23;99349.63;;;21.01;40.31
28008;BME280;15333;50.010;20.020;2023-05-31T10:56:28;99342.81;;;21.05;39.80
28008;BME280;15333;50.010;20.020;2023-05-31T10:59:29;99341.63;;;21.16;38.98
28008;BME280;15333;50.010;20.020;2023-05-31T11:02:50;99334.66;;;21.05;38.90
28008;BME280;15333;50.010;20.020;2023-05-31T11:05:59;99342.50;;;21.32;37.93
28008;BME280;15333;50.010;20.020;2023-05-31T11:09:01;99330.25;;;21.20;37.95
28008;BME280;15333;50.010;20.020;2023-05-31T11:12:06;99333.28;;;20.93;38.78
28008;BME280;15333;50.010;20.020;2023-05-31T11:15:16;99323.38;;;20.67;38.73
28008;BME280;15333;50.010;20.020;2023-05-31T11:18:23;99330.88;;;20.65;39.54
28008;BME280;15333;50.010;20.020;2023-05-31T11:22:05;99314.88;;;20.62;39.46
28008;BME280;15333;50.010;20.020;2023-05-31T11:25:06;99316.25;;;20.66;39.69
28008;BME280;15333;50.010;20.020;2023-05-31T11:28:07;99312.84;;;20.73;39.25
28008;BME280;15333;50.010;20.020;2023-05-31T11:31:14;99302.00;;;20.81;39.54
28008;BME280;15333;50.010;20.020;2023-05-31T11:34:21;99306.91;;;20.77;40.05
28008;BME280;15333;50.010;20.020;2023-05-31T11:37:28;99304.06;;;21.27;39.69
28008;BME280;15333;50.010;20.020;2023-05-31T11:40:30;99301.31;;;21.35;40.11
28008;BME280;15333;50.010;20.020;2023-05-31T11:43:32;99295.50;;;21.55;38.81
28008;BME280;15333;50.010;20.020;2023-05-31T11:46:34;99298.97;;;21.16;38.70
28008;BME280;15333;50.010;20.020;2023-05-31T11:49:37;99297.22;;;21.07;38.57
28008;BME280;15333;50.010;20.020;2023-05-31T11:52:39;99305.38;;;20.83;39.92
28008;BME280;15333;50.010;20.020;2023-05-31T11:55:45;99292.59;;;20.51;40.41
28008;BME280;15333;50.010;20.020;2023-05-31T11:58:48;99291.41;;;20.61;40.05
28008;BME280;15333;50.010;20.020;2023-05-31T12:01:48;99302.00;;;21.13;39.50
28008;BME280;15333;50.010;20.020;2023-05-31T12:04:49;99291.44;;;21.51;39.58
28008;BME280;15333;50.010;20.020;2023-05-31T12:07:55;99287.53;;;21.37;38.87
28008;BME280;15333;50.010;20.020;2023-05-31T12:11:00;99288.72;;;21.34;39.50
28008;BME280;15333;50.010;20.020;2023-05-31T12:14:03;99280.22;;;21.45;39.52
28008;BME280;15333;50.010;20.020;2023-05-31T12:17:05;99269.81;;;21.41;38.63
28008;BME280;15333;50.010;20.020;2023-05-31T12:20:06;99269.13;;;21.55;38.44
28008;BME280;15333;50.010;20.020;2023-05-31T12:23:12;99264.53;;;21.39;39.13
28008;BME280;15333;50.010;20.020;2023-05-31T12:26:13;99266.34;;;21.79;38.59
28008;BME280;15333;50.010;20.020;2023-05-31T12:29:16;99269.00;;;21.00;38.83
28008;BME280;15333;50.010;20.020;2023-05-31T12:32:17;99269.16;;;21.06;39.68
28008;BME280;15333;50.010;20.020;2023-05-31T12:35:20;99271.34;;;21.60;38.45
28008;BME280;15333;50.010;20.020;2023-05-31T12:38:27;99264.81;;;21.69;38.30
28008;BME280;15333;50.010;20.020;2023-05-31T12:41:28;99256.03;;;21.51;38.15
28008;BME280;15333;50.010;20.020;2023-05-31T12:44:30;99265.25;;;21.33;40.14
28008;BME280;15333;50.010;20.020;2023-05-31T12:47:35;99255.75;;;21.21;40.40
28008;BME280;15333;50.010;20.020;2023-05-31T12:50:37;99257.41;;;20.90;40.49
28008;BME280;15333;50.010;20.020;2023-05-31T12:53:45;99240.41;;;21.28;39.54
28008;BME280;15333;50.010;20.020;2023-05-31T12:56:46;99238.94;;;21.73;39.47
28008;BME280;15333;50.010;20.020;2023-05-31T12:59:57;99232.56;;;22.27;39.16
28008;BME280;15333;50.010;20.020;2023-05-31T13:02:57;99241.41;;;22.30;38.53
28008;BME280;15333;50.010;20.020;2023-05-31T13:05:58;99224.34;;;22.05;39.12
28008;BME280;15333;50.010;20.020;2023-05-31T13:08:59;99239.47;;;22.15;38.89
28008;BME280;15333;50.010;20.020;2023-05-31T13:12:00;99233.72;;;22.02;38.87
28008;BME280;15333;50.010;20.020;2023-05-31T13:15:01;99225.34;;;22.35;38.49
28008;BME280;15333;50.010;20.020;2023-05-31T13:18:02;99226.44;;;22.25;38.53
28008;BME280;15333;50.010;20.020;2023-05-31T13:21:03;99222.50;;;21.89;39.17
28008;BME280;15333;50.010;20.020;2023-05-31T13:24:05;99223.69;;;22.25;38.30
28008;BME280;15333;50.010;20.020;2023-05-31T13:27:07;99223.06;;;21.76;38.50
28008;BME280;15333;50.010;20.020;2023-05-31T13:30:08;99216.53;;;21.46;38.45
28008;BME280;15333;50.010;20.020;2023-05-31T13:33:09;99216.38;;;21.40;38.58
28008;BME280;15333;50.010;20.020;2023-05-31T13:36:10;99218.06;;;21.96;37.62
28008;BME280;15333;50.010;20.020;2023-05-31T13:39:12;99217.56;;;21.93;37.61
28008;BME280;15333;50.010;20.020;2023-05-31T13:42:14;99218.53;;;21.61;37.64
28008;BME280;15333;50.010;20.020;2023-05-31T13:45:16;99211.41;;;21.60;37.53
28008;BME280;15333;50.010;20.020;2023-05-31T13:48:18;99211.47;;;21.82;37.44
28008;BME280;15333;50.010;20.020;2023-05-31T13:51:19;99208.56;;;22.23;37.06
28008;BME280;15333;50.010;20.020;2023-05-31T13:54:20;99212.53;;;22.12;36.77
28008;BME280;15333;50.010;20.020;2023-05-31T13:57:21;99207.84;;;21.90;37.14
28008;BME280;15333;50.010;20.020;2023-05-31T14:00:22;99201.72;;;21.96;36.32
28008;BME280;15333;50.010;20.020;2023-05-31T14:03:23;99186.50;;;22.33;35.58
28008;BME280;15333;50.010;20.020;2023-05-31T14:06:23;99191.97;;;22.55;36.01
28008;BME280;15333;50.010;20.020;2023-05-31T14:09:25;99186.75;;;22.46;37.96
28008;BME280;15333;50.010;20.020;2023-05-31T14:12:26;99183.72;;;22.41;38.58
28008;BME280;15333;50.010;20.020;2023-05-31T14:15:27;99180.91;;;22.26;38.73
28008;BME280;15333;50.010;20.020;2023-05-31T14:18:28;99192.16;;;22.00;39.21
28008;BME280;15333;50.010;20.020;2023-05-31T14:21:29;99175.59;;;21.71;39.75
28008;BME280;15333;50.010;20.020;2023-05-31T14:24:31;99178.13;;;21.72;40.45
28008;BME280;15333;50.010;20.020;2023-05-31T14:27:34;99176.41;;;22.10;39.57
28008;BME280;15333;50.010;20.020;2023-05-31T14:30:35;99181.47;;;22.21;39.34
28008;BME280;15333;50.010;20.020;2023-05-31T14:33:39;99170.38;;;22.46;39.05
28008;BME280;15333;50.010;20.020;2023-05-31T14:36:40;99177.53;;;22.47;38.90
28008;BME280;15333;50.010;20.020;2023-05-31T14:39:41;99172.31;;;22.60;38.91
28008;BME280;15333;50.010;20.020;2023-05-31T14:42:43;99162.38;;;22.21;39.83
28008;BME280;15333;50.010;20.020;2023-05-31T14:45:44;99182.50;;;21.81;40.51
28008;BME280;15333;50.010;20.020;2023-05-31T14:48:44;99173.81;;;21.86;40.32
28008;BME280;15333;50.010;20.020;2023-05-31T14:51:45;99160.34;;;22.23;38.97
28008;BME280;15333;50.010;20.020;2023-05-31T14:54:46;99171.66;;;22.35;38.68
28008;BME280;15333;50.010;20.020;2023-05-31T14:57:47;99164.84;;;22.54;38.63
28008;BME280;15333;50.010;20.020;2023-05-31T15:00:48;99161.22;;;22.61;37.50
28008;BME280;15333;50.010;20.020;2023-05-31T15:03:51;99160.81;;;22.50;37.53
28008;BME280;15333;50.010;20.020;2023-05-31T15:06:53;99147.00;;;22.29;37.51
28008;BME280;15333;50.010;20.020;2023-05-31T15:09:54;99146.19;;;21.89;39.40
28008;BME280;15333;50.010;20.020;2023-05-31T15:12:55;99154.50;;;22.26;39.39
28008;BME280;15333;50.010;20.020;2023-05-31T15:15:56;99151.41;;;22.30;39.64
28008;BME280;15333;50.010;20.020;2023-05-31T15:18:56;99150.78;;;21.97;40.07
28008;BME280;15333;50.010;20.020;2023-05-31T15:21:58;99146.00;;;21.99;40.43
28008;BME280;15333;50.010;20.020;2023-05-31T15:24:58;99146.22;;;22.43;39.55
28008;BME280;15333;50.010;20.020;2023-05-31T15:27:59;99127.94;;;22.66;38.89
28008;BME280;15333;50.010;20.020;2023-05-31T15:31:00;99133.97;;;23.14;37.88
28008;BME280;15333;50.010;20.020;2023-05-31T15:34:09;99130.09;;;23.52;37.06
28008;BME280;15333;50.010;20.020;2023-05-31T15:37:09;99130.50;;;23.49;36.68
28008;BME280;15333;50.010;20.020;2023-05-31T15:40:11;99127.06;;;23.76;36.98
28008;BME280;15333;50.010;20.020;2023-05-31T15:43:12;99131.22;;;23.72;36.27
28008;BME280;15333;50.010;20.020;2023-05-31T15:46:14;99134.59;;;23.45;37.71
28008;BME280;15333;50.010;20.020;2023-05-31T15:49:15;99126.88;;;23.04;37.93
28008;BME280;15333;50.010;20.020;2023-05-31T15:52:16;99121.69;;;23.68;36.78
28008;BME280;15333;50.010;20.020;2023-05-31T15:55:17;99117.38;;;23.00;37.78
28008;BME280;15333;50.010;20.020;2023-05-31T15:58:18;99111.44;;;23.41;37.11
28008;BME280;15333;50.010;20.020;2023-05-31T16:01:19;99119.06;;;23.31;36.53
28008;BME280;15333;50.010;20.020;2023-05-31T16:04:20;99116.19;;;24.19;35.43